Rizhao, China
Current Conditions -  °F | °C
As of 8:00 PM on Wednesday 28 Jan 2015 (Local Time) from ZSQD Reporting Station
Clear Clear  
Wind Chill: 22°   Ceiling: Unl
Heat Index: 30°   Visibility: 6mi
Dew Point:   Wind: 9mph
Humidity: 37%   Direction: 40°NE
Pressure: 30.48"   Gusts: NA
Location:  35.43°N, 119.45°E
Report Text: ZSQD 281200Z 04004MPS CAVOK M01/M14 Q1032 NOSIG
Loading
Personal Weather Stations






























Interactive Weather Map New forecast layout! Learn more

10-Day Weather Forecast

Advertisements
Track Severe Weather on mobile